Time;durP1;ratioP1;P1;durP2;ratioP2;P2;SDS_P1;SDS_P2;PMS_P1;PMS_P2;Temp;Humidity;BMP_temperature;BMP_pressure;BME280_temperature;BME280_humidity;BME280_pressure;Samples;Min_cycle;Max_cycle;Signal;HPM_P1;HPM_P2
2021/09/09 00:00:37;;;;;;;0.40;0.10;;;;;;;18.32;63.18;100885.23;112463;1205;109522;-72
2021/09/09 00:03:05;;;;;;;0.40;0.10;;;;;;;18.32;63.19;100887.97;112320;1198;139321;-71
2021/09/09 00:05:32;;;;;;;0.40;0.10;;;;;;;18.32;63.14;100885.42;112456;1198;94928;-71
2021/09/09 00:07:59;;;;;;;0.40;0.10;;;;;;;18.31;63.07;100886.18;112369;1205;137290;-71
2021/09/09 00:10:26;;;;;;;0.40;0.10;;;;;;;18.30;63.09;100887.19;112503;1196;94881;-71
2021/09/09 00:12:53;;;;;;;0.40;0.10;;;;;;;18.27;63.29;100889.27;112279;1197;139500;-71
2021/09/09 00:15:19;;;;;;;0.40;0.10;;;;;;;18.20;63.36;100889.05;112501;1198;94819;-72
2021/09/09 00:17:46;;;;;;;0.40;0.10;;;;;;;18.14;63.57;100888.81;112511;1199;95364;-72
2021/09/09 00:20:13;;;;;;;0.40;0.10;;;;;;;18.11;63.34;100888.11;112362;1199;138863;-72
2021/09/09 00:22:40;;;;;;;0.40;0.10;;;;;;;18.07;63.61;100888.66;112432;1198;95298;-72
2021/09/09 00:25:08;;;;;;;0.40;0.10;;;;;;;18.03;63.53;100890.30;112360;1198;138235;-72
2021/09/09 00:27:34;;;;;;;0.40;0.10;;;;;;;18.09;63.40;100888.90;112437;1197;94807;-72
2021/09/09 00:30:01;;;;;;;0.40;0.10;;;;;;;18.03;63.64;100889.23;112410;1198;94811;-73
2021/09/09 00:32:27;;;;;;;0.40;0.10;;;;;;;17.93;63.69;100887.58;112230;1205;139503;-72
2021/09/09 00:34:54;;;;;;;0.40;0.10;;;;;;;17.93;63.62;100886.27;112501;1203;94925;-72
2021/09/09 00:37:21;;;;;;;0.40;0.10;;;;;;;17.95;63.81;100886.36;112279;1199;139038;-72
2021/09/09 00:39:47;;;;;;;0.40;0.10;;;;;;;17.95;63.89;100883.89;112482;1198;94259;-72
2021/09/09 00:42:14;;;;;;;0.40;0.10;;;;;;;17.95;63.65;100885.10;112443;1199;94838;-72
2021/09/09 00:44:40;;;;;;;0.40;0.10;;;;;;;17.98;63.54;100882.81;112265;1198;138093;-72
2021/09/09 00:47:09;;;;;;;0.40;0.10;;;;;;;17.97;63.53;100885.91;112412;1198;95355;-72
2021/09/09 00:49:39;;;;;;;0.40;0.10;;;;;;;17.97;63.52;100883.23;112482;1198;137455;-72
2021/09/09 00:52:07;;;;;;;0.40;0.10;;;;;;;17.96;63.61;100884.90;112322;1203;95003;-72
2021/09/09 00:54:34;;;;;;;0.40;0.10;;;;;;;17.94;63.64;100881.95;112365;1198;108585;-72
2021/09/09 00:57:04;;;;;;;0.40;0.10;;;;;;;17.94;63.45;100885.18;112267;1198;139248;-72
2021/09/09 00:59:34;;;;;;;0.40;0.10;;;;;;;17.94;63.41;100883.35;112458;1198;95436;-72
2021/09/09 01:02:02;;;;;;;0.40;0.10;;;;;;;17.95;63.34;100882.63;112322;1205;139146;-72
2021/09/09 01:04:29;;;;;;;0.40;0.10;;;;;;;17.91;63.40;100884.21;112412;1199;108915;-75
2021/09/09 01:06:56;;;;;;;0.40;0.10;;;;;;;17.89;63.52;100882.29;112039;1197;139102;-77
2021/09/09 01:09:23;;;;;;;0.40;0.10;;;;;;;17.87;63.55;100878.66;112233;1199;94918;-77
2021/09/09 01:11:50;;;;;;;0.40;0.10;;;;;;;17.82;63.51;100881.76;112205;1199;94795;-75
2021/09/09 01:14:17;;;;;;;0.40;0.10;;;;;;;17.74;63.58;100881.79;112172;1205;137319;-76
2021/09/09 01:16:46;;;;;;;0.40;0.10;;;;;;;17.73;63.66;100880.05;112189;1198;94895;-75
2021/09/09 01:19:13;;;;;;;0.40;0.10;;;;;;;17.68;63.89;100879.38;112043;1205;138810;-74
2021/09/09 01:21:40;;;;;;;0.40;0.10;;;;;;;17.62;63.97;100880.23;113350;1197;93883;-76
2021/09/09 01:24:12;;;;;;;0.40;0.10;;;;;;;17.57;64.20;100879.57;112448;1204;95415;-76
2021/09/09 01:26:47;;;;;;;0.40;0.10;;;;;;;17.48;64.45;100877.97;112289;1197;138109;-77
2021/09/09 01:29:13;;;;;;;0.40;0.10;;;;;;;17.53;64.58;100877.08;112472;1198;94885;-75
2021/09/09 01:31:40;;;;;;;0.40;0.10;;;;;;;17.52;64.87;100878.34;112265;1204;137793;-76
2021/09/09 01:34:07;;;;;;;0.40;0.10;;;;;;;17.54;64.84;100877.91;112263;1203;94806;-76
2021/09/09 01:36:33;;;;;;;0.40;0.10;;;;;;;17.57;64.68;100878.11;112390;1198;94810;-76
2021/09/09 01:39:00;;;;;;;0.40;0.10;;;;;;;17.58;64.76;100874.31;112224;1205;138064;-75
2021/09/09 01:41:27;;;;;;;0.40;0.10;;;;;;;17.58;64.66;100874.66;112428;1197;95382;-74
2021/09/09 01:43:53;;;;;;;0.40;0.10;;;;;;;17.64;64.21;100874.02;112174;1206;138558;-75
2021/09/09 01:46:20;;;;;;;0.40;0.10;;;;;;;17.67;64.01;100872.27;112430;1198;96253;-75
2021/09/09 01:48:47;;;;;;;0.40;0.10;;;;;;;17.60;63.95;100874.40;112249;1205;138047;-75
2021/09/09 01:51:13;;;;;;;0.40;0.10;;;;;;;17.59;64.16;100875.71;112426;1199;94810;-76
2021/09/09 01:53:40;;;;;;;0.40;0.10;;;;;;;17.61;63.97;100874.00;112361;1199;96042;-76
2021/09/09 01:56:08;;;;;;;0.40;0.10;;;;;;;17.61;63.92;100876.48;112269;1197;138807;-77
2021/09/09 01:58:34;;;;;;;0.40;0.10;;;;;;;17.56;64.24;100876.75;112307;1205;108871;-76
2021/09/09 02:01:01;;;;;;;0.40;0.10;;;;;;;17.53;64.02;100874.54;112301;1203;138061;-76
2021/09/09 02:03:28;;;;;;;0.40;0.10;;;;;;;17.55;63.99;100875.34;112459;1205;94906;-77
2021/09/09 02:05:55;;;;;;;0.40;0.10;;;;;;;17.57;63.91;100872.17;112392;1197;94816;-75
2021/09/09 02:08:22;;;;;;;0.40;0.10;;;;;;;17.52;64.00;100870.27;112282;1205;137563;-76
2021/09/09 02:10:48;;;;;;;0.40;0.10;;;;;;;17.45;64.10;100875.09;112519;1198;94830;-76
2021/09/09 02:13:15;;;;;;;0.40;0.10;;;;;;;17.45;64.17;100870.45;112378;1197;138202;-74
2021/09/09 02:15:42;;;;;;;0.40;0.10;;;;;;;17.48;64.34;100868.31;112478;1199;94789;-76
2021/09/09 02:18:09;;;;;;;0.40;0.10;;;;;;;17.46;64.49;100868.93;112499;1198;95521;-76
2021/09/09 02:20:37;;;;;;;0.40;0.10;;;;;;;17.38;64.80;100867.16;112280;1205;138084;-76
2021/09/09 02:23:04;;;;;;;0.40;0.10;;;;;;;17.26;65.49;100865.59;112486;1202;94877;-77
2021/09/09 02:25:30;;;;;;;0.40;0.10;;;;;;;17.16;65.67;100863.17;112397;1204;137980;-75
2021/09/09 02:27:57;;;;;;;0.40;0.10;;;;;;;17.12;66.23;100859.92;112502;1205;94933;-76
2021/09/09 02:30:26;;;;;;;0.40;0.10;;;;;;;17.03;66.91;100859.27;112421;1198;94945;-78
2021/09/09 02:32:53;;;;;;;0.40;0.10;;;;;;;16.91;67.25;100858.94;112328;1204;138099;-77
2021/09/09 02:35:20;;;;;;;0.40;0.10;;;;;;;16.92;67.22;100856.54;112484;1196;95332;-76
2021/09/09 02:37:47;;;;;;;0.40;0.10;;;;;;;16.92;67.40;100856.91;112371;1199;139440;-77
2021/09/09 02:40:14;;;;;;;0.40;0.10;;;;;;;16.89;67.59;100852.21;112485;1196;94802;-78
2021/09/09 02:42:42;;;;;;;0.40;0.10;;;;;;;16.81;67.75;100850.75;112409;1203;94941;-77
2021/09/09 02:45:10;;;;;;;0.40;0.10;;;;;;;16.76;67.84;100852.42;113598;1198;138251;-76
2021/09/09 02:47:37;;;;;;;0.40;0.10;;;;;;;16.75;68.08;100853.35;112522;1197;94897;-77
2021/09/09 02:50:06;;;;;;;0.40;0.10;;;;;;;16.67;68.36;100850.81;112314;1199;138640;-75
2021/09/09 02:52:33;;;;;;;0.40;0.10;;;;;;;16.64;68.53;100851.10;112629;1198;111011;-78
2021/09/09 02:55:01;;;;;;;0.40;0.10;;;;;;;16.56;68.91;100848.98;112324;1197;138410;-76
2021/09/09 02:57:27;;;;;;;0.40;0.10;;;;;;;16.48;69.17;100850.91;112474;1198;95333;-77
2021/09/09 02:59:54;;;;;;;0.40;0.10;;;;;;;16.49;69.26;100849.42;112375;1199;94799;-75
2021/09/09 03:02:21;;;;;;;0.40;0.10;;;;;;;16.47;69.32;100849.70;112395;1196;138158;-76
2021/09/09 03:04:48;;;;;;;0.40;0.10;;;;;;;16.44;69.44;100850.73;112477;1205;95422;-77
2021/09/09 03:07:15;;;;;;;0.40;0.10;;;;;;;16.40;69.64;100849.14;112421;1196;136456;-76
2021/09/09 03:09:41;;;;;;;0.40;0.10;;;;;;;16.37;69.78;100847.98;112527;1196;94782;-74
2021/09/09 03:12:08;;;;;;;0.40;0.10;;;;;;;16.41;69.67;100849.98;112378;1196;107245;-76
2021/09/09 03:14:35;;;;;;;0.40;0.10;;;;;;;16.40;69.81;100848.25;112340;1198;138304;-76
2021/09/09 03:17:02;;;;;;;0.40;0.10;;;;;;;16.34;69.92;100849.39;112477;1196;94801;-78
2021/09/09 03:19:29;;;;;;;0.40;0.10;;;;;;;16.30;70.06;100850.46;112328;1199;138361;-76
2021/09/09 03:21:55;;;;;;;0.40;0.10;;;;;;;16.32;70.05;100853.96;112512;1198;94804;-75
2021/09/09 03:24:22;;;;;;;0.40;0.10;;;;;;;16.33;69.89;100854.45;112498;1198;94816;-77
2021/09/09 03:26:50;;;;;;;0.40;0.10;;;;;;;16.36;69.87;100854.68;112410;1204;139170;-76
2021/09/09 03:29:17;;;;;;;0.40;0.10;;;;;;;16.32;69.90;100857.17;112476;1197;94822;-76
2021/09/09 03:31:44;;;;;;;0.40;0.10;;;;;;;16.24;70.18;100856.61;112259;1198;138295;-77
2021/09/09 03:34:11;;;;;;;0.40;0.10;;;;;;;16.20;70.28;100855.72;112509;1198;95196;-76
2021/09/09 03:36:37;;;;;;;0.40;0.10;;;;;;;16.17;70.30;100854.95;112413;1198;95324;-78
2021/09/09 03:39:04;;;;;;;0.40;0.10;;;;;;;16.15;70.35;100848.93;112405;1197;137619;-78
2021/09/09 03:41:30;;;;;;;0.40;0.10;;;;;;;16.10;70.45;100848.95;112644;1205;95034;-75
2021/09/09 03:43:57;;;;;;;0.40;0.10;;;;;;;16.08;70.46;100848.34;112145;1198;137990;-77
2021/09/09 03:46:24;;;;;;;0.40;0.10;;;;;;;16.13;70.35;100851.18;112394;1196;94910;-78
2021/09/09 03:48:51;;;;;;;0.40;0.10;;;;;;;16.12;70.28;100848.54;112386;1198;138192;-77
2021/09/09 03:51:17;;;;;;;0.40;0.10;;;;;;;16.12;70.26;100848.01;112491;1196;94896;-77
2021/09/09 03:53:44;;;;;;;0.40;0.10;;;;;;;16.08;70.37;100847.63;112539;1204;94909;-78
2021/09/09 03:56:10;;;;;;;0.40;0.10;;;;;;;16.10;70.28;100850.06;112395;1204;137741;-77
2021/09/09 03:58:37;;;;;;;0.40;0.10;;;;;;;16.08;70.26;100847.60;112393;1205;94815;-77
2021/09/09 04:01:04;;;;;;;0.40;0.10;;;;;;;16.04;70.25;100849.03;112429;1196;138340;-77
2021/09/09 04:03:31;;;;;;;0.40;0.10;;;;;;;16.04;70.33;100843.66;112577;1203;94886;-76
2021/09/09 04:05:57;;;;;;;0.40;0.10;;;;;;;16.02;70.18;100845.00;112453;1196;94831;-78
2021/09/09 04:08:29;;;;;;;0.40;0.10;;;;;;;16.00;70.35;100842.40;113710;1196;136749;-76
2021/09/09 04:10:56;;;;;;;0.40;0.10;;;;;;;16.01;70.37;100843.27;113544;1196;93844;-76
2021/09/09 04:13:22;;;;;;;0.40;0.10;;;;;;;16.03;70.26;100842.09;112461;1196;138179;-76
2021/09/09 04:15:49;;;;;;;0.40;0.10;;;;;;;16.07;70.07;100844.27;112472;1204;94941;-76
2021/09/09 04:18:16;;;;;;;0.40;0.10;;;;;;;16.04;70.03;100845.64;112299;1199;95332;-77
2021/09/09 04:20:42;;;;;;;0.40;0.10;;;;;;;16.06;70.09;100850.37;112379;1199;138943;-78
2021/09/09 04:23:09;;;;;;;0.40;0.10;;;;;;;16.11;69.85;100844.10;112303;1199;110262;-75
2021/09/09 04:25:36;;;;;;;0.40;0.10;;;;;;;16.12;69.81;100849.07;112306;1196;138857;-76
2021/09/09 04:28:03;;;;;;;0.40;0.10;;;;;;;16.13;69.79;100849.20;112331;1198;94818;-76
2021/09/09 04:30:29;;;;;;;0.40;0.10;;;;;;;16.12;69.79;100848.90;112411;1198;96727;-76
2021/09/09 04:32:56;;;;;;;0.40;0.10;;;;;;;16.04;69.93;100847.76;112366;1202;137830;-76
2021/09/09 04:35:22;;;;;;;0.40;0.10;;;;;;;16.04;70.05;100845.10;112454;1196;109272;-76
2021/09/09 04:37:49;;;;;;;0.40;0.10;;;;;;;16.01;70.12;100847.36;112391;1196;139660;-75
2021/09/09 04:40:16;;;;;;;0.40;0.10;;;;;;;15.98;70.13;100849.65;112551;1196;94844;-79
2021/09/09 04:42:42;;;;;;;0.40;0.10;;;;;;;15.96;70.29;100847.94;112497;1200;94778;-77
2021/09/09 04:45:10;;;;;;;0.40;0.10;;;;;;;15.97;70.37;100850.45;112473;1196;138423;-76
2021/09/09 04:47:37;;;;;;;0.40;0.10;;;;;;;15.96;70.42;100848.66;112499;1205;107152;-78
2021/09/09 04:50:05;;;;;;;0.40;0.10;;;;;;;16.00;70.41;100851.54;112449;1198;138375;-77
2021/09/09 04:52:32;;;;;;;0.40;0.10;;;;;;;16.01;70.32;100849.71;112325;1200;94171;-79
2021/09/09 04:54:58;;;;;;;0.40;0.10;;;;;;;15.99;70.42;100849.79;112351;1196;138145;-76
2021/09/09 04:57:25;;;;;;;0.40;0.10;;;;;;;16.04;70.40;100849.73;112476;1198;94981;-75
2021/09/09 04:59:52;;;;;;;0.40;0.10;;;;;;;16.09;70.39;100852.61;112405;1198;95294;-78
2021/09/09 05:02:18;;;;;;;0.40;0.10;;;;;;;16.11;70.16;100844.09;112470;1204;138720;-76
2021/09/09 05:04:45;;;;;;;0.40;0.10;;;;;;;16.12;70.33;100848.92;112504;1196;94841;-75
2021/09/09 05:07:12;;;;;;;0.40;0.10;;;;;;;16.10;70.28;100849.34;112317;1196;138446;-76
2021/09/09 05:09:38;;;;;;;0.40;0.10;;;;;;;16.09;70.36;100847.05;112314;1198;95374;-77
2021/09/09 05:12:05;;;;;;;0.40;0.10;;;;;;;16.07;70.40;100846.23;112428;1203;93867;-76
2021/09/09 05:14:33;;;;;;;0.40;0.20;;;;;;;16.09;70.51;100841.48;112400;1196;138893;-77
2021/09/09 05:17:00;;;;;;;0.40;0.10;;;;;;;16.12;70.42;100841.72;112359;1198;94843;-75
2021/09/09 05:19:27;;;;;;;0.40;0.10;;;;;;;16.12;70.49;100836.15;112126;1198;138392;-76
2021/09/09 05:21:53;;;;;;;0.40;0.10;;;;;;;16.22;70.55;100832.70;112286;1197;95278;-77
2021/09/09 05:24:20;;;;;;;0.40;0.10;;;;;;;16.28;70.21;100830.82;112206;1199;96658;-77
2021/09/09 05:26:47;;;;;;;0.40;0.10;;;;;;;16.32;70.10;100827.45;112205;1198;138361;-77
2021/09/09 05:29:13;;;;;;;0.40;0.10;;;;;;;16.34;70.04;100830.40;112426;1196;94808;-77
2021/09/09 05:31:40;;;;;;;0.40;0.20;;;;;;;16.35;70.07;100829.99;112272;1199;137624;-77
2021/09/09 05:34:07;;;;;;;0.40;0.10;;;;;;;16.38;69.95;100831.45;112593;1198;94846;-75
2021/09/09 05:36:33;;;;;;;0.40;0.10;;;;;;;16.38;69.76;100826.45;112294;1199;95300;-77
2021/09/09 05:39:00;;;;;;;0.40;0.10;;;;;;;16.47;69.81;100821.42;112429;1196;138452;-75
2021/09/09 05:41:26;;;;;;;0.40;0.10;;;;;;;16.59;69.77;100818.38;112404;1196;95509;-78
2021/09/09 05:43:53;;;;;;;0.40;0.10;;;;;;;16.60;69.31;100817.41;112250;1205;137446;-76
2021/09/09 05:46:20;;;;;;;0.40;0.10;;;;;;;16.63;69.45;100818.71;112520;1196;94818;-75
2021/09/09 05:48:46;;;;;;;0.40;0.10;;;;;;;16.68;69.46;100816.32;112426;1204;94813;-75
2021/09/09 05:51:13;;;;;;;0.40;0.10;;;;;;;16.79;69.27;100812.63;112345;1195;138921;-75
2021/09/09 05:53:40;;;;;;;0.40;0.10;;;;;;;16.85;69.03;100811.29;112399;1200;94839;-76
2021/09/09 05:56:06;;;;;;;0.40;0.10;;;;;;;16.93;69.18;100811.65;112172;1200;138186;-74
2021/09/09 05:58:33;;;;;;;0.40;0.10;;;;;;;17.01;68.94;100812.55;112353;1200;95326;-75
2021/09/09 06:00:59;;;;;;;0.40;0.10;;;;;;;17.07;68.76;100810.84;112024;1199;138155;-77
2021/09/09 06:03:29;;;;;;;0.40;0.10;;;;;;;17.24;68.72;100813.80;112365;1196;94801;-74
2021/09/09 06:06:04;;;;;;;0.40;0.10;;;;;;;17.34;68.30;100814.23;112397;1204;107555;-75
2021/09/09 06:08:31;;;;;;;0.40;0.10;;;;;;;17.36;68.38;100810.91;112217;1199;138062;-77
2021/09/09 06:10:58;;;;;;;0.40;0.10;;;;;;;17.46;68.40;100811.32;112417;1196;94890;-76
2021/09/09 06:13:25;;;;;;;0.40;0.10;;;;;;;17.48;67.72;100810.66;112425;1198;138187;-75
2021/09/09 06:15:52;;;;;;;0.40;0.10;;;;;;;17.51;67.69;100811.05;112342;1198;94831;-76
2021/09/09 06:18:19;;;;;;;0.40;0.10;;;;;;;17.57;67.18;100809.87;112449;1198;94840;-77
2021/09/09 06:20:47;;;;;;;0.40;0.10;;;;;;;17.71;67.60;100814.57;112402;1200;137768;-77
2021/09/09 06:23:14;;;;;;;0.40;0.10;;;;;;;17.84;66.85;100815.02;112385;1198;94817;-75
2021/09/09 06:25:40;;;;;;;0.40;0.10;;;;;;;17.92;66.47;100817.52;112316;1196;138151;-76
2021/09/09 06:28:07;;;;;;;0.40;0.10;;;;;;;17.93;66.35;100816.58;112549;1204;95168;-76
2021/09/09 06:30:33;;;;;;;0.40;0.10;;;;;;;17.91;66.62;100816.84;112378;1198;109627;-78
2021/09/09 06:33:01;;;;;;;0.40;0.10;;;;;;;18.00;66.84;100816.98;112262;1198;138279;-76
2021/09/09 06:35:29;;;;;;;0.40;0.10;;;;;;;18.13;65.97;100815.02;112380;1198;94930;-76
2021/09/09 06:37:56;;;;;;;0.40;0.10;;;;;;;18.25;66.01;100813.37;112112;1199;138282;-75
2021/09/09 06:40:23;;;;;;;0.40;0.10;;;;;;;18.31;65.65;100808.17;112441;1198;109118;-77
2021/09/09 06:42:50;;;;;;;0.40;0.10;;;;;;;18.34;65.51;100811.99;112419;1199;139413;-77
2021/09/09 06:45:17;;;;;;;0.40;0.10;;;;;;;18.42;65.36;100815.02;112432;1196;94937;-76
2021/09/09 06:47:44;;;;;;;0.40;0.10;;;;;;;18.49;65.26;100819.82;112361;1196;95359;-77
2021/09/09 06:50:10;;;;;;;0.40;0.10;;;;;;;18.57;65.41;100817.08;112244;1198;138563;-76
2021/09/09 06:52:38;;;;;;;0.40;0.10;;;;;;;18.68;65.23;100815.60;112483;1204;94861;-76
2021/09/09 06:55:05;;;;;;;0.40;0.10;;;;;;;18.76;64.44;100815.69;112362;1196;137823;-76
2021/09/09 06:57:34;;;;;;;0.40;0.10;;;;;;;18.87;64.39;100806.86;112476;1196;95391;-78
2021/09/09 07:00:01;;;;;;;0.40;0.10;;;;;;;19.03;64.86;100806.71;112419;1197;94891;-77
2021/09/09 07:02:28;;;;;;;0.40;0.10;;;;;;;19.15;63.66;100804.24;112350;1198;137885;-75
2021/09/09 07:04:55;;;;;;;0.40;0.10;;;;;;;19.25;63.16;100805.68;112533;1196;95401;-77
2021/09/09 07:07:22;;;;;;;0.40;0.10;;;;;;;19.31;62.96;100808.41;112445;1196;138157;-75
2021/09/09 07:09:48;;;;;;;0.40;0.10;;;;;;;19.39;63.38;100809.77;112497;1198;95337;-75
2021/09/09 07:12:15;;;;;;;0.40;0.10;;;;;;;19.48;62.75;100808.16;112517;1200;109401;-77
2021/09/09 07:14:42;;;;;;;0.40;0.10;;;;;;;19.58;62.49;100807.62;112381;1198;137932;-75
2021/09/09 07:17:08;;;;;;;0.40;0.10;;;;;;;19.69;62.31;100807.16;112363;1204;94858;-76
2021/09/09 07:19:35;;;;;;;0.40;0.10;;;;;;;19.80;61.68;100811.38;112414;1197;138188;-75
2021/09/09 07:22:02;;;;;;;0.40;0.10;;;;;;;19.89;61.37;100810.35;112585;1204;94822;-75
2021/09/09 07:24:29;;;;;;;0.40;0.10;;;;;;;19.92;60.85;100810.55;112401;1196;109840;-75
2021/09/09 07:26:56;;;;;;;0.40;0.10;;;;;;;20.04;61.08;100814.90;112218;1198;137985;-78
2021/09/09 07:29:23;;;;;;;0.40;0.10;;;;;;;20.17;60.81;100811.22;112379;1199;94989;-75
2021/09/09 07:31:49;;;;;;;0.40;0.10;;;;;;;20.25;60.16;100807.84;112304;1198;137824;-76
2021/09/09 07:34:16;;;;;;;0.40;0.00;;;;;;;20.31;59.79;100815.59;112335;1197;95334;-78
2021/09/09 07:36:43;;;;;;;0.40;0.00;;;;;;;20.36;59.93;100812.02;112435;1196;95332;-76
2021/09/09 07:39:10;;;;;;;0.40;0.00;;;;;;;20.45;59.79;100812.04;112325;1198;138005;-78
2021/09/09 07:41:37;;;;;;;0.40;0.10;;;;;;;20.53;60.46;100812.81;112475;1198;95155;-78
2021/09/09 07:44:04;;;;;;;0.40;0.10;;;;;;;20.65;60.00;100810.11;112400;1196;138927;-77
2021/09/09 07:46:31;;;;;;;0.40;0.10;;;;;;;20.78;59.34;100805.04;112493;1198;94895;-75
2021/09/09 07:48:57;;;;;;;0.40;0.00;;;;;;;20.81;58.69;100802.44;112413;1204;137472;-75
2021/09/09 07:51:24;;;;;;;0.40;0.00;;;;;;;20.85;58.68;100803.50;112531;1196;94817;-75
2021/09/09 07:53:51;;;;;;;0.40;0.10;;;;;;;20.91;58.76;100801.51;112517;1204;94810;-78
2021/09/09 07:56:18;;;;;;;0.40;0.10;;;;;;;21.00;58.65;100801.11;112273;1196;138393;-77
2021/09/09 07:58:48;;;;;;;0.40;0.10;;;;;;;21.08;58.00;100799.69;112434;1204;109416;-76
2021/09/09 08:01:20;;;;;;;0.40;0.00;;;;;;;21.19;57.54;100799.37;112381;1196;137769;-75
2021/09/09 08:03:47;;;;;;;0.40;0.00;;;;;;;21.23;56.99;100800.21;113550;1196;94817;-75
2021/09/09 08:06:15;;;;;;;0.40;0.10;;;;;;;21.28;57.31;100804.36;112336;1198;108405;-76
2021/09/09 08:08:42;;;;;;;0.40;0.00;;;;;;;21.40;57.11;100804.70;112326;1197;138239;-76
2021/09/09 08:11:09;;;;;;;0.40;0.00;;;;;;;21.58;56.34;100805.33;112525;1196;95288;-76
2021/09/09 08:13:36;;;;;;;0.40;0.00;;;;;;;21.71;56.18;100806.42;112332;1197;138225;-76
2021/09/09 08:16:03;;;;;;;0.40;0.00;;;;;;;21.83;56.16;100808.02;113839;1196;93972;-77
2021/09/09 08:18:30;;;;;;;0.40;0.10;;;;;;;21.97;55.73;100807.24;113799;1197;93506;-77
2021/09/09 08:20:57;;;;;;;0.40;0.00;;;;;;;22.12;53.95;100808.09;112322;1198;137892;-76
2021/09/09 08:23:24;;;;;;;0.40;0.00;;;;;;;22.20;53.30;100806.10;112405;1196;94899;-77
2021/09/09 08:25:51;;;;;;;0.40;0.00;;;;;;;22.30;53.41;100804.14;112236;1198;137391;-75
2021/09/09 08:28:18;;;;;;;0.40;0.00;;;;;;;22.41;51.65;100805.95;112334;1196;94807;-76
2021/09/09 08:30:46;;;;;;;0.40;0.10;;;;;;;22.45;50.77;100800.20;112562;1196;94782;-75
2021/09/09 08:33:14;;;;;;;0.40;0.00;;;;;;;22.51;51.05;100803.05;112491;1196;137993;-77
2021/09/09 08:35:42;;;;;;;0.40;0.10;;;;;;;22.62;51.53;100803.20;112454;1197;94822;-75
2021/09/09 08:38:09;;;;;;;0.40;0.00;;;;;;;22.76;52.06;100804.95;112326;1196;137887;-75
2021/09/09 08:40:38;;;;;;;0.40;0.00;;;;;;;22.84;50.89;100800.19;113058;1196;94825;-76
2021/09/09 08:43:06;;;;;;;0.40;0.00;;;;;;;22.92;49.70;100798.94;112379;1196;138860;-76
2021/09/09 08:45:34;;;;;;;0.40;0.00;;;;;;;22.95;49.43;100792.55;112600;1204;94903;-76
2021/09/09 08:48:04;;;;;;;0.40;0.00;;;;;;;23.05;49.43;100792.54;112351;1197;108564;-75
2021/09/09 08:50:32;;;;;;;0.40;0.00;;;;;;;23.14;49.79;100793.52;112363;1196;137737;-77
2021/09/09 08:53:03;;;;;;;0.40;0.00;;;;;;;23.31;49.93;100789.44;113694;1196;94781;-75
2021/09/09 08:55:30;;;;;;;0.40;0.00;;;;;;;23.46;49.20;100789.80;112300;1198;137841;-74
2021/09/09 08:57:57;;;;;;;0.40;0.00;;;;;;;23.55;48.14;100788.56;112439;1199;95326;-75
2021/09/09 09:00:24;;;;;;;0.40;0.00;;;;;;;23.58;47.43;100788.71;112444;1198;94774;-76
2021/09/09 09:02:55;;;;;;;0.40;0.10;;;;;;;23.62;47.14;100783.16;112371;1197;137416;-76
2021/09/09 09:05:23;;;;;;;0.40;0.00;;;;;;;23.93;46.50;100788.61;112495;1203;95343;-77
2021/09/09 09:08:04;;;;;;;0.40;0.00;;;;;;;24.61;44.05;100779.58;112381;1196;138342;-76
2021/09/09 09:10:32;;;;;;;0.40;0.00;;;;;;;25.68;42.25;100779.42;112458;1204;109929;-76
2021/09/09 09:13:00;;;;;;;0.40;0.00;;;;;;;26.51;40.16;100773.48;113745;1196;138790;-77
2021/09/09 09:15:29;;;;;;;0.40;0.00;;;;;;;27.82;38.90;100764.80;112553;1198;94823;-76
2021/09/09 09:18:02;;;;;;;0.40;0.00;;;;;;;29.48;36.45;100765.42;112482;1204;100436;-76
2021/09/09 09:20:55;;;;;;;0.40;0.00;;;;;;;30.73;33.17;100765.84;112379;1198;138609;-76
2021/09/09 09:23:24;;;;;;;0.40;0.00;;;;;;;31.24;32.54;100761.91;112383;1205;94847;-76
2021/09/09 09:25:54;;;;;;;0.40;0.00;;;;;;;31.40;31.02;100761.52;112417;1196;137540;-75
2021/09/09 09:28:46;;;;;;;0.40;0.00;;;;;;;31.77;30.58;100762.02;112787;1197;100581;-75
2021/09/09 09:31:19;;;;;;;0.40;0.00;;;;;;;31.58;30.87;100760.02;112366;1196;136818;-75
2021/09/09 09:33:55;;;;;;;0.40;0.00;;;;;;;31.05;31.37;100764.69;112362;1198;94918;-76
2021/09/09 09:36:30;;;;;;;0.40;0.00;;;;;;;30.62;31.96;100768.30;113797;1196;93513;-77
2021/09/09 09:39:14;;;;;;;0.40;0.00;;;;;;;30.89;33.35;100763.25;113229;1196;137761;-76
2021/09/09 09:42:02;;;;;;;0.40;0.00;;;;;;;32.00;31.71;100758.36;112371;1198;100820;-75
2021/09/09 09:44:40;;;;;;;0.40;0.00;;;;;;;32.67;29.27;100754.95;112364;1196;138146;-75
2021/09/09 09:47:21;;;;;;;0.40;0.00;;;;;;;32.65;28.79;100752.78;112447;1198;94848;-76
2021/09/09 09:49:55;;;;;;;0.40;0.00;;;;;;;33.14;28.49;100749.50;112314;1198;140211;-76
2021/09/09 09:52:25;;;;;;;0.40;0.00;;;;;;;34.14;27.33;100750.19;112492;1196;95338;-75
2021/09/09 09:54:57;;;;;;;0.40;0.00;;;;;;;35.08;25.60;100749.20;112349;1197;137814;-77
2021/09/09 09:57:26;;;;;;;0.40;0.00;;;;;;;35.64;25.08;100741.10;112467;1198;95315;-74
2021/09/09 09:59:53;;;;;;;0.40;0.00;;;;;;;36.40;24.68;100741.79;112434;1203;99981;-76
2021/09/09 10:02:19;;;;;;;0.40;0.00;;;;;;;37.23;24.09;100740.03;112613;1197;137382;-77
2021/09/09 10:04:49;;;;;;;0.40;0.00;;;;;;;37.71;22.84;100738.73;112572;1197;94765;-77
2021/09/09 10:07:16;;;;;;;0.40;0.00;;;;;;;38.05;22.59;100733.22;112397;1198;138926;-76
2021/09/09 10:09:43;;;;;;;0.40;0.00;;;;;;;38.19;21.72;100732.55;112607;1196;94782;-75
2021/09/09 10:12:11;;;;;;;0.40;0.00;;;;;;;38.63;21.65;100734.23;112517;1196;94845;-77
2021/09/09 10:14:49;;;;;;;0.40;0.00;;;;;;;39.32;21.65;100728.41;112414;1198;137448;-77
2021/09/09 10:17:21;;;;;;;0.40;0.00;;;;;;;39.46;20.28;100726.94;112528;1196;94775;-76
2021/09/09 10:19:49;;;;;;;0.40;0.00;;;;;;;39.37;19.72;100726.72;112743;1197;136558;-77
2021/09/09 10:22:21;;;;;;;0.40;0.00;;;;;;;39.69;20.27;100727.99;112483;1198;99839;-77
2021/09/09 10:25:03;;;;;;;0.40;0.00;;;;;;;40.09;19.83;100726.36;112594;1196;94852;-76
2021/09/09 10:27:39;;;;;;;0.40;0.00;;;;;;;40.46;19.78;100721.30;112391;1196;137226;-75
2021/09/09 10:30:09;;;;;;;0.40;0.00;;;;;;;40.45;19.49;100721.30;112463;1199;99976;-75
2021/09/09 10:32:36;;;;;;;0.40;0.00;;;;;;;40.43;19.48;100722.83;112295;1198;137549;-76
2021/09/09 10:35:15;;;;;;;0.40;0.00;;;;;;;40.51;19.20;100719.72;112506;1204;95401;-76
2021/09/09 10:37:46;;;;;;;0.40;0.00;;;;;;;40.63;18.91;100717.91;112392;1198;138076;-76
2021/09/09 10:40:29;;;;;;;0.40;0.00;;;;;;;40.55;18.16;100715.02;112452;1197;99948;-75
2021/09/09 10:43:00;;;;;;;0.40;0.00;;;;;;;40.66;18.76;100713.19;112523;1198;100774;-77
2021/09/09 10:45:33;;;;;;;0.40;0.00;;;;;;;40.94;18.42;100708.95;113145;1196;137482;-76
2021/09/09 10:48:24;;;;;;;0.40;0.00;;;;;;;39.73;19.00;100707.52;112460;1197;94964;-77
2021/09/09 10:51:08;;;;;;;0.40;0.00;;;;;;;37.46;21.44;100706.20;112431;1197;137414;-77
2021/09/09 10:53:53;;;;;;;0.40;0.00;;;;;;;35.66;23.07;100700.77;112474;1199;100828;-76
2021/09/09 10:56:21;;;;;;;0.40;0.00;;;;;;;34.36;24.31;100701.42;112457;1203;137611;-75
2021/09/09 10:59:23;;;;;;;0.40;0.00;;;;;;;33.35;25.69;100702.67;112502;1203;94833;-76
2021/09/09 11:01:50;;;;;;;0.40;0.00;;;;;;;32.45;27.19;100700.08;112321;1204;137679;-76
2021/09/09 11:04:34;;;;;;;0.40;0.00;;;;;;;31.79;28.17;100692.81;112392;1196;95239;-75
2021/09/09 11:07:02;;;;;;;0.40;0.00;;;;;;;31.18;28.66;100695.83;112489;1196;95484;-75
2021/09/09 11:09:29;;;;;;;0.40;0.00;;;;;;;30.69;29.99;100693.35;112566;1197;137216;-75
2021/09/09 11:12:02;;;;;;;0.40;0.00;;;;;;;30.42;30.86;100695.66;112212;1199;99658;-74
2021/09/09 11:14:30;;;;;;;0.40;0.00;;;;;;;30.23;31.01;100694.28;112382;1197;140870;-76
2021/09/09 11:16:57;;;;;;;0.40;0.00;;;;;;;29.95;31.34;100692.33;112549;1196;94901;-77
2021/09/09 11:19:26;;;;;;;0.40;0.00;;;;;;;29.68;31.92;100694.12;112437;1204;138178;-75